sensor_id;sensor_type;location;lat;lon;timestamp;temperature;humidity
46283;DHT22;32017;43.700;11.820;2023-07-09T00:02:17;19.60;99.90
46283;DHT22;32017;43.700;11.820;2023-07-09T00:04:39;19.60;99.90
46283;DHT22;32017;43.700;11.820;2023-07-09T00:07:00;19.50;99.90
46283;DHT22;32017;43.700;11.820;2023-07-09T00:09:25;19.50;99.90
46283;DHT22;32017;43.700;11.820;2023-07-09T00:11:46;19.50;99.90
46283;DHT22;32017;43.700;11.820;2023-07-09T00:14:13;19.60;99.90
46283;DHT22;32017;43.700;11.820;2023-07-09T00:16:33;19.60;99.90
46283;DHT22;32017;43.700;11.820;2023-07-09T00:18:53;19.60;99.90
46283;DHT22;32017;43.700;11.820;2023-07-09T00:21:13;19.50;99.90
46283;DHT22;32017;43.700;11.820;2023-07-09T00:23:33;19.30;99.90
46283;DHT22;32017;43.700;11.820;2023-07-09T00:25:53;19.30;99.90
46283;DHT22;32017;43.700;11.820;2023-07-09T00:28:17;19.20;99.90
46283;DHT22;32017;43.700;11.820;2023-07-09T00:30:37;19.20;99.90
46283;DHT22;32017;43.700;11.820;2023-07-09T00:32:58;19.10;99.90
46283;DHT22;32017;43.700;11.820;2023-07-09T00:35:18;19.00;99.90
46283;DHT22;32017;43.700;11.820;2023-07-09T00:37:38;19.00;99.90
46283;DHT22;32017;43.700;11.820;2023-07-09T00:39:59;19.00;99.90
46283;DHT22;32017;43.700;11.820;2023-07-09T00:42:21;19.00;99.90
46283;DHT22;32017;43.700;11.820;2023-07-09T00:44:50;18.90;99.90
46283;DHT22;32017;43.700;11.820;2023-07-09T00:49:42;18.90;99.90
46283;DHT22;32017;43.700;11.820;2023-07-09T00:52:26;18.80;99.90
46283;DHT22;32017;43.700;11.820;2023-07-09T00:54:50;18.70;99.90
46283;DHT22;32017;43.700;11.820;2023-07-09T00:57:13;18.60;99.90
46283;DHT22;32017;43.700;11.820;2023-07-09T00:59:37;18.50;99.90
46283;DHT22;32017;43.700;11.820;2023-07-09T01:01:57;18.60;99.90
46283;DHT22;32017;43.700;11.820;2023-07-09T01:04:20;18.60;99.90
46283;DHT22;32017;43.700;11.820;2023-07-09T01:06:49;18.50;99.90
46283;DHT22;32017;43.700;11.820;2023-07-09T01:09:09;18.50;99.90
46283;DHT22;32017;43.700;11.820;2023-07-09T01:11:30;18.40;99.90
46283;DHT22;32017;43.700;11.820;2023-07-09T01:13:57;18.20;99.90
46283;DHT22;32017;43.700;11.820;2023-07-09T01:16:18;18.10;99.90
46283;DHT22;32017;43.700;11.820;2023-07-09T01:18:38;18.00;99.90
46283;DHT22;32017;43.700;11.820;2023-07-09T01:21:03;18.00;99.90
46283;DHT22;32017;43.700;11.820;2023-07-09T01:23:27;18.10;99.90
46283;DHT22;32017;43.700;11.820;2023-07-09T01:25:50;18.20;99.90
46283;DHT22;32017;43.700;11.820;2023-07-09T01:28:12;18.10;99.90
46283;DHT22;32017;43.700;11.820;2023-07-09T01:30:36;18.20;99.90
46283;DHT22;32017;43.700;11.820;2023-07-09T01:32:58;18.10;99.90
46283;DHT22;32017;43.700;11.820;2023-07-09T01:35:20;18.10;99.90
46283;DHT22;32017;43.700;11.820;2023-07-09T01:37:41;18.00;99.90
46283;DHT22;32017;43.700;11.820;2023-07-09T01:40:04;18.00;99.90
46283;DHT22;32017;43.700;11.820;2023-07-09T01:42:47;18.00;99.90
46283;DHT22;32017;43.700;11.820;2023-07-09T01:45:08;18.10;99.90
46283;DHT22;32017;43.700;11.820;2023-07-09T01:47:30;18.10;99.90
46283;DHT22;32017;43.700;11.820;2023-07-09T01:49:51;18.10;99.90
46283;DHT22;32017;43.700;11.820;2023-07-09T01:52:11;18.00;99.90
46283;DHT22;32017;43.700;11.820;2023-07-09T01:54:32;18.10;99.90
46283;DHT22;32017;43.700;11.820;2023-07-09T01:57:33;18.10;99.90
46283;DHT22;32017;43.700;11.820;2023-07-09T01:59:54;18.10;99.90
46283;DHT22;32017;43.700;11.820;2023-07-09T02:02:14;18.10;99.90
46283;DHT22;32017;43.700;11.820;2023-07-09T02:04:41;18.10;99.90
46283;DHT22;32017;43.700;11.820;2023-07-09T02:07:02;18.10;99.90
46283;DHT22;32017;43.700;11.820;2023-07-09T02:09:22;18.20;99.90
46283;DHT22;32017;43.700;11.820;2023-07-09T02:11:41;18.10;99.90
46283;DHT22;32017;43.700;11.820;2023-07-09T02:14:01;18.10;99.90
46283;DHT22;32017;43.700;11.820;2023-07-09T02:16:22;18.00;99.90
46283;DHT22;32017;43.700;11.820;2023-07-09T02:18:41;18.00;99.90
46283;DHT22;32017;43.700;11.820;2023-07-09T02:21:02;18.00;99.90
46283;DHT22;32017;43.700;11.820;2023-07-09T02:23:27;18.00;99.90
46283;DHT22;32017;43.700;11.820;2023-07-09T02:25:47;17.80;99.90
46283;DHT22;32017;43.700;11.820;2023-07-09T02:28:07;17.70;99.90
46283;DHT22;32017;43.700;11.820;2023-07-09T02:30:27;17.80;99.90
46283;DHT22;32017;43.700;11.820;2023-07-09T02:32:46;17.90;99.90
46283;DHT22;32017;43.700;11.820;2023-07-09T02:35:06;17.90;99.90
46283;DHT22;32017;43.700;11.820;2023-07-09T02:37:27;17.70;99.90
46283;DHT22;32017;43.700;11.820;2023-07-09T02:39:47;17.60;99.90
46283;DHT22;32017;43.700;11.820;2023-07-09T02:42:09;17.50;99.90
46283;DHT22;32017;43.700;11.820;2023-07-09T02:44:30;17.40;99.90
46283;DHT22;32017;43.700;11.820;2023-07-09T02:46:50;17.30;99.90
46283;DHT22;32017;43.700;11.820;2023-07-09T02:49:13;17.20;99.90
46283;DHT22;32017;43.700;11.820;2023-07-09T02:51:33;17.10;99.90
46283;DHT22;32017;43.700;11.820;2023-07-09T02:53:54;17.20;99.90
46283;DHT22;32017;43.700;11.820;2023-07-09T02:56:14;17.20;99.90
46283;DHT22;32017;43.700;11.820;2023-07-09T02:58:34;17.20;99.90
46283;DHT22;32017;43.700;11.820;2023-07-09T03:00:53;17.20;99.90
46283;DHT22;32017;43.700;11.820;2023-07-09T03:03:13;17.10;99.90
46283;DHT22;32017;43.700;11.820;2023-07-09T03:05:33;17.10;99.90
46283;DHT22;32017;43.700;11.820;2023-07-09T03:07:54;17.10;99.90
46283;DHT22;32017;43.700;11.820;2023-07-09T03:10:13;17.10;99.90
46283;DHT22;32017;43.700;11.820;2023-07-09T03:12:33;17.10;99.90
46283;DHT22;32017;43.700;11.820;2023-07-09T03:14:53;17.10;99.90
46283;DHT22;32017;43.700;11.820;2023-07-09T03:17:13;17.00;99.90
46283;DHT22;32017;43.700;11.820;2023-07-09T03:19:33;17.00;99.90
46283;DHT22;32017;43.700;11.820;2023-07-09T03:21:56;17.00;99.90
46283;DHT22;32017;43.700;11.820;2023-07-09T03:24:17;16.90;99.90
46283;DHT22;32017;43.700;11.820;2023-07-09T03:26:38;16.90;99.90
46283;DHT22;32017;43.700;11.820;2023-07-09T03:28:58;16.80;99.90
46283;DHT22;32017;43.700;11.820;2023-07-09T03:31:18;16.80;99.90
46283;DHT22;32017;43.700;11.820;2023-07-09T03:33:38;16.80;99.90
46283;DHT22;32017;43.700;11.820;2023-07-09T03:35:58;16.90;99.90
46283;DHT22;32017;43.700;11.820;2023-07-09T03:38:18;16.90;99.90
46283;DHT22;32017;43.700;11.820;2023-07-09T03:40:39;16.90;99.90
46283;DHT22;32017;43.700;11.820;2023-07-09T03:42:59;16.80;99.90
46283;DHT22;32017;43.700;11.820;2023-07-09T03:45:19;16.90;99.90
46283;DHT22;32017;43.700;11.820;2023-07-09T03:47:39;16.80;99.90
46283;DHT22;32017;43.700;11.820;2023-07-09T03:50:00;16.80;99.90
46283;DHT22;32017;43.700;11.820;2023-07-09T03:52:19;16.90;99.90
46283;DHT22;32017;43.700;11.820;2023-07-09T03:54:39;16.90;99.90
46283;DHT22;32017;43.700;11.820;2023-07-09T03:56:59;17.00;99.90
46283;DHT22;32017;43.700;11.820;2023-07-09T03:59:19;17.10;99.90
46283;DHT22;32017;43.700;11.820;2023-07-09T04:01:39;17.20;99.90
46283;DHT22;32017;43.700;11.820;2023-07-09T04:03:59;17.20;99.90
46283;DHT22;32017;43.700;11.820;2023-07-09T04:06:19;17.20;99.90
46283;DHT22;32017;43.700;11.820;2023-07-09T04:08:39;17.20;99.90
46283;DHT22;32017;43.700;11.820;2023-07-09T04:11:00;17.10;99.90
46283;DHT22;32017;43.700;11.820;2023-07-09T04:13:21;17.00;99.90
46283;DHT22;32017;43.700;11.820;2023-07-09T04:15:41;17.10;99.90
46283;DHT22;32017;43.700;11.820;2023-07-09T04:18:01;17.10;99.90
46283;DHT22;32017;43.700;11.820;2023-07-09T04:20:21;17.00;99.90
46283;DHT22;32017;43.700;11.820;2023-07-09T04:22:41;17.10;99.90
46283;DHT22;32017;43.700;11.820;2023-07-09T04:25:03;17.10;99.90
46283;DHT22;32017;43.700;11.820;2023-07-09T04:27:23;17.00;99.90
46283;DHT22;32017;43.700;11.820;2023-07-09T04:29:47;16.90;99.90
46283;DHT22;32017;43.700;11.820;2023-07-09T04:32:12;16.90;99.90
46283;DHT22;32017;43.700;11.820;2023-07-09T04:34:34;17.00;99.90
46283;DHT22;32017;43.700;11.820;2023-07-09T04:36:55;16.80;99.90
46283;DHT22;32017;43.700;11.820;2023-07-09T04:39:14;16.80;99.90
46283;DHT22;32017;43.700;11.820;2023-07-09T04:41:34;16.90;99.90
46283;DHT22;32017;43.700;11.820;2023-07-09T04:43:54;16.90;99.90
46283;DHT22;32017;43.700;11.820;2023-07-09T04:46:15;16.80;99.90
46283;DHT22;32017;43.700;11.820;2023-07-09T04:48:35;16.80;99.90
46283;DHT22;32017;43.700;11.820;2023-07-09T04:50:55;16.80;99.90
46283;DHT22;32017;43.700;11.820;2023-07-09T04:53:16;16.90;99.90
46283;DHT22;32017;43.700;11.820;2023-07-09T04:55:36;16.80;99.90
46283;DHT22;32017;43.700;11.820;2023-07-09T04:57:56;16.80;99.90
46283;DHT22;32017;43.700;11.820;2023-07-09T05:00:16;16.80;99.90
46283;DHT22;32017;43.700;11.820;2023-07-09T05:02:36;16.80;99.90
46283;DHT22;32017;43.700;11.820;2023-07-09T05:04:57;16.90;99.90
46283;DHT22;32017;43.700;11.820;2023-07-09T05:07:17;16.90;99.90
46283;DHT22;32017;43.700;11.820;2023-07-09T05:09:37;16.90;99.90
46283;DHT22;32017;43.700;11.820;2023-07-09T05:11:57;17.00;99.90
46283;DHT22;32017;43.700;11.820;2023-07-09T05:14:17;17.00;99.90
46283;DHT22;32017;43.700;11.820;2023-07-09T05:16:37;17.00;99.90
46283;DHT22;32017;43.700;11.820;2023-07-09T05:18:56;17.10;99.90
46283;DHT22;32017;43.700;11.820;2023-07-09T05:21:17;17.10;99.90
46283;DHT22;32017;43.700;11.820;2023-07-09T05:23:37;17.20;99.90
46283;DHT22;32017;43.700;11.820;2023-07-09T05:26:02;17.30;99.90
46283;DHT22;32017;43.700;11.820;2023-07-09T05:28:23;17.40;99.90
46283;DHT22;32017;43.700;11.820;2023-07-09T05:30:43;17.50;99.90
46283;DHT22;32017;43.700;11.820;2023-07-09T05:33:03;17.50;99.90
46283;DHT22;32017;43.700;11.820;2023-07-09T05:35:24;17.50;99.90
46283;DHT22;32017;43.700;11.820;2023-07-09T05:37:47;17.60;99.90
46283;DHT22;32017;43.700;11.820;2023-07-09T05:40:08;17.70;99.90
46283;DHT22;32017;43.700;11.820;2023-07-09T05:42:28;17.80;99.90
46283;DHT22;32017;43.700;11.820;2023-07-09T05:44:48;17.80;99.90
46283;DHT22;32017;43.700;11.820;2023-07-09T05:47:08;17.90;99.90
46283;DHT22;32017;43.700;11.820;2023-07-09T05:49:28;17.90;99.90
46283;DHT22;32017;43.700;11.820;2023-07-09T05:51:47;18.00;99.90
46283;DHT22;32017;43.700;11.820;2023-07-09T05:54:07;18.10;99.90
46283;DHT22;32017;43.700;11.820;2023-07-09T05:56:27;18.30;99.90
46283;DHT22;32017;43.700;11.820;2023-07-09T05:58:48;18.40;99.90
46283;DHT22;32017;43.700;11.820;2023-07-09T06:01:08;18.60;99.90
46283;DHT22;32017;43.700;11.820;2023-07-09T06:03:29;18.70;99.90
46283;DHT22;32017;43.700;11.820;2023-07-09T06:05:49;18.80;99.90
46283;DHT22;32017;43.700;11.820;2023-07-09T06:08:09;19.00;99.90
46283;DHT22;32017;43.700;11.820;2023-07-09T06:10:29;19.20;99.90
46283;DHT22;32017;43.700;11.820;2023-07-09T06:12:50;19.60;99.90
46283;DHT22;32017;43.700;11.820;2023-07-09T06:15:10;19.50;99.90
46283;DHT22;32017;43.700;11.820;2023-07-09T06:17:31;19.60;99.90
46283;DHT22;32017;43.700;11.820;2023-07-09T06:19:51;19.80;99.90
46283;DHT22;32017;43.700;11.820;2023-07-09T06:22:11;19.80;99.90
46283;DHT22;32017;43.700;11.820;2023-07-09T06:24:30;19.90;99.90
46283;DHT22;32017;43.700;11.820;2023-07-09T06:26:51;20.00;99.90
46283;DHT22;32017;43.700;11.820;2023-07-09T06:29:10;20.10;99.90
46283;DHT22;32017;43.700;11.820;2023-07-09T06:31:30;20.60;99.90
46283;DHT22;32017;43.700;11.820;2023-07-09T06:33:53;21.20;99.90
46283;DHT22;32017;43.700;11.820;2023-07-09T06:36:13;21.10;99.90
46283;DHT22;32017;43.700;11.820;2023-07-09T06:38:33;21.20;99.90
46283;DHT22;32017;43.700;11.820;2023-07-09T06:40:53;21.80;99.90
46283;DHT22;32017;43.700;11.820;2023-07-09T06:43:14;21.90;99.90
46283;DHT22;32017;43.700;11.820;2023-07-09T06:45:34;22.00;99.90
46283;DHT22;32017;43.700;11.820;2023-07-09T06:47:53;22.30;99.90
46283;DHT22;32017;43.700;11.820;2023-07-09T06:50:13;22.50;99.90
46283;DHT22;32017;43.700;11.820;2023-07-09T06:52:34;22.80;99.90
46283;DHT22;32017;43.700;11.820;2023-07-09T06:54:54;22.90;99.90
46283;DHT22;32017;43.700;11.820;2023-07-09T06:57:16;22.90;99.90
46283;DHT22;32017;43.700;11.820;2023-07-09T06:59:36;22.80;99.90
46283;DHT22;32017;43.700;11.820;2023-07-09T07:01:55;23.10;99.90
46283;DHT22;32017;43.700;11.820;2023-07-09T07:04:16;23.30;99.90
46283;DHT22;32017;43.700;11.820;2023-07-09T07:06:36;23.40;99.90
46283;DHT22;32017;43.700;11.820;2023-07-09T07:08:56;23.50;99.90
46283;DHT22;32017;43.700;11.820;2023-07-09T07:11:16;23.60;99.90
46283;DHT22;32017;43.700;11.820;2023-07-09T07:13:38;24.00;99.90
46283;DHT22;32017;43.700;11.820;2023-07-09T07:15:58;24.20;99.90
46283;DHT22;32017;43.700;11.820;2023-07-09T07:18:18;24.50;99.90
46283;DHT22;32017;43.700;11.820;2023-07-09T07:20:39;24.50;99.90
46283;DHT22;32017;43.700;11.820;2023-07-09T07:22:58;24.80;99.90
46283;DHT22;32017;43.700;11.820;2023-07-09T07:25:18;25.00;99.90
46283;DHT22;32017;43.700;11.820;2023-07-09T07:27:39;25.30;99.90
46283;DHT22;32017;43.700;11.820;2023-07-09T07:29:59;25.00;99.90
46283;DHT22;32017;43.700;11.820;2023-07-09T07:32:18;25.00;99.90
46283;DHT22;32017;43.700;11.820;2023-07-09T07:34:39;25.10;99.90
46283;DHT22;32017;43.700;11.820;2023-07-09T07:36:59;25.40;99.90
46283;DHT22;32017;43.700;11.820;2023-07-09T07:39:19;25.50;99.90
46283;DHT22;32017;43.700;11.820;2023-07-09T07:41:38;25.90;99.90
46283;DHT22;32017;43.700;11.820;2023-07-09T07:43:59;26.00;99.90
46283;DHT22;32017;43.700;11.820;2023-07-09T07:46:19;26.40;99.90
46283;DHT22;32017;43.700;11.820;2023-07-09T07:48:39;26.70;99.90
46283;DHT22;32017;43.700;11.820;2023-07-09T07:51:00;26.70;99.90
46283;DHT22;32017;43.700;11.820;2023-07-09T07:53:21;26.80;99.90
46283;DHT22;32017;43.700;11.820;2023-07-09T07:55:42;26.80;99.90
46283;DHT22;32017;43.700;11.820;2023-07-09T07:58:03;27.00;99.90
46283;DHT22;32017;43.700;11.820;2023-07-09T08:00:23;27.10;99.90
46283;DHT22;32017;43.700;11.820;2023-07-09T08:02:43;27.20;99.90
46283;DHT22;32017;43.700;11.820;2023-07-09T08:05:04;27.10;99.90
46283;DHT22;32017;43.700;11.820;2023-07-09T08:07:25;27.20;99.90
46283;DHT22;32017;43.700;11.820;2023-07-09T08:09:45;27.50;99.90
46283;DHT22;32017;43.700;11.820;2023-07-09T08:12:10;27.80;99.90
46283;DHT22;32017;43.700;11.820;2023-07-09T08:14:36;28.00;98.00
46283;DHT22;32017;43.700;11.820;2023-07-09T08:16:55;28.10;99.80
46283;DHT22;32017;43.700;11.820;2023-07-09T08:19:18;28.40;98.80
46283;DHT22;32017;43.700;11.820;2023-07-09T08:21:39;28.60;97.60
46283;DHT22;32017;43.700;11.820;2023-07-09T08:23:59;28.70;96.80
46283;DHT22;32017;43.700;11.820;2023-07-09T08:26:19;28.60;97.40
46283;DHT22;32017;43.700;11.820;2023-07-09T08:28:38;29.10;98.20
46283;DHT22;32017;43.700;11.820;2023-07-09T08:30:59;29.40;94.20
46283;DHT22;32017;43.700;11.820;2023-07-09T08:33:19;29.60;94.20
46283;DHT22;32017;43.700;11.820;2023-07-09T08:35:42;29.70;96.60
46283;DHT22;32017;43.700;11.820;2023-07-09T08:38:03;29.80;93.70
46283;DHT22;32017;43.700;11.820;2023-07-09T08:40:23;29.50;93.50
46283;DHT22;32017;43.700;11.820;2023-07-09T08:42:45;29.50;93.90
46283;DHT22;32017;43.700;11.820;2023-07-09T08:45:40;29.70;95.00
46283;DHT22;32017;43.700;11.820;2023-07-09T08:48:32;30.00;95.10
46283;DHT22;32017;43.700;11.820;2023-07-09T08:50:57;30.60;95.50
46283;DHT22;32017;43.700;11.820;2023-07-09T08:53:42;30.30;94.50
46283;DHT22;32017;43.700;11.820;2023-07-09T08:56:04;30.70;95.60
46283;DHT22;32017;43.700;11.820;2023-07-09T08:58:31;30.70;95.00
46283;DHT22;32017;43.700;11.820;2023-07-09T09:00:57;30.60;95.20
46283;DHT22;32017;43.700;11.820;2023-07-09T09:03:34;30.70;94.30
46283;DHT22;32017;43.700;11.820;2023-07-09T09:05:57;30.80;95.10
46283;DHT22;32017;43.700;11.820;2023-07-09T09:08:33;31.10;93.70
46283;DHT22;32017;43.700;11.820;2023-07-09T09:11:13;31.60;94.40
46283;DHT22;32017;43.700;11.820;2023-07-09T09:13:36;31.50;92.60
46283;DHT22;32017;43.700;11.820;2023-07-09T09:16:01;31.70;93.30
46283;DHT22;32017;43.700;11.820;2023-07-09T09:18:27;32.00;92.80
46283;DHT22;32017;43.700;11.820;2023-07-09T09:21:03;32.20;92.90
46283;DHT22;32017;43.700;11.820;2023-07-09T09:23:36;32.30;91.70
46283;DHT22;32017;43.700;11.820;2023-07-09T09:26:00;32.30;91.70
46283;DHT22;32017;43.700;11.820;2023-07-09T09:28:35;32.80;93.40
46283;DHT22;32017;43.700;11.820;2023-07-09T09:30:55;32.50;91.70
46283;DHT22;32017;43.700;11.820;2023-07-09T09:33:17;32.70;93.30
46283;DHT22;32017;43.700;11.820;2023-07-09T09:35:40;33.00;92.30
46283;DHT22;32017;43.700;11.820;2023-07-09T09:38:02;32.50;90.70
46283;DHT22;32017;43.700;11.820;2023-07-09T09:40:24;32.60;93.40
46283;DHT22;32017;43.700;11.820;2023-07-09T09:42:44;32.80;92.40
46283;DHT22;32017;43.700;11.820;2023-07-09T09:45:11;32.90;92.50
46283;DHT22;32017;43.700;11.820;2023-07-09T09:47:33;33.30;92.00
46283;DHT22;32017;43.700;11.820;2023-07-09T09:49:54;33.50;90.80
46283;DHT22;32017;43.700;11.820;2023-07-09T09:52:15;33.30;89.40
46283;DHT22;32017;43.700;11.820;2023-07-09T09:54:40;33.50;91.10
46283;DHT22;32017;43.700;11.820;2023-07-09T09:57:00;33.60;90.80
46283;DHT22;32017;43.700;11.820;2023-07-09T09:59:27;33.00;87.10
46283;DHT22;32017;43.700;11.820;2023-07-09T10:01:57;32.60;89.80
46283;DHT22;32017;43.700;11.820;2023-07-09T10:04:19;33.20;91.30
46283;DHT22;32017;43.700;11.820;2023-07-09T10:06:42;33.40;88.30
46283;DHT22;32017;43.700;11.820;2023-07-09T10:09:09;33.20;87.60
46283;DHT22;32017;43.700;11.820;2023-07-09T10:11:49;33.50;90.50
46283;DHT22;32017;43.700;11.820;2023-07-09T10:14:32;33.20;88.00
46283;DHT22;32017;43.700;11.820;2023-07-09T10:17:07;33.50;92.30
46283;DHT22;32017;43.700;11.820;2023-07-09T10:19:39;33.90;90.50
46283;DHT22;32017;43.700;11.820;2023-07-09T10:22:09;33.50;89.70
46283;DHT22;32017;43.700;11.820;2023-07-09T10:27:09;33.70;90.20
46283;DHT22;32017;43.700;11.820;2023-07-09T10:32:29;34.50;88.60
46283;DHT22;32017;43.700;11.820;2023-07-09T10:40:41;34.20;89.10
46283;DHT22;32017;43.700;11.820;2023-07-09T10:43:03;34.80;86.70
